Time;durP1;ratioP1;P1;durP2;ratioP2;P2;SDS_P1;SDS_P2;PMS_P1;PMS_P2;Temp;Humidity;BMP_temperature;BMP_pressure;BME280_temperature;BME280_humidity;BME280_pressure;Samples;Min_cycle;Max_cycle;Signal;HPM_P1;HPM_P2
2021/07/03 00:02:43;;;;;;;6.57;4.03;;;25.50;53.70;;;;;;6128697;28;82480;-67
2021/07/03 00:05:43;;;;;;;6.57;4.05;;;25.50;53.80;;;;;;6124087;28;80698;-69
2021/07/03 00:08:44;;;;;;;5.57;3.85;;;25.50;53.90;;;;;;6131898;28;80540;-68
2021/07/03 00:11:45;;;;;;;5.78;4.00;;;25.50;53.90;;;;;;6125760;28;80656;-72
2021/07/03 00:14:45;;;;;;;6.47;4.32;;;25.50;53.80;;;;;;6120641;28;80793;-69
2021/07/03 00:17:46;;;;;;;4.95;3.70;;;25.50;54.00;;;;;;6133840;28;80671;-69
2021/07/03 00:20:46;;;;;;;7.88;4.13;;;25.50;54.00;;;;;;6130885;28;80789;-69
2021/07/03 00:23:47;;;;;;;7.38;3.40;;;25.40;53.90;;;;;;6130444;28;80608;-69
2021/07/03 00:26:47;;;;;;;4.55;3.63;;;25.40;54.00;;;;;;6100102;28;87623;-68
2021/07/03 00:29:48;;;;;;;5.57;3.17;;;25.40;54.00;;;;;;6128789;28;80265;-69
2021/07/03 00:32:48;;;;;;;4.28;3.35;;;25.40;54.00;;;;;;6128918;28;80587;-68
2021/07/03 00:35:49;;;;;;;5.03;3.50;;;25.50;54.10;;;;;;6125540;28;80466;-68
2021/07/03 00:38:49;;;;;;;5.07;3.40;;;25.50;54.00;;;;;;6130118;28;82810;-68
2021/07/03 00:41:50;;;;;;;4.93;3.42;;;25.40;54.10;;;;;;6130568;28;80347;-69
2021/07/03 00:44:50;;;;;;;6.15;3.38;;;25.40;54.00;;;;;;6115042;28;83363;-69
2021/07/03 00:47:51;;;;;;;8.65;3.72;;;25.40;54.00;;;;;;6129155;28;82660;-69
2021/07/03 00:50:53;;;;;;;4.53;3.50;;;25.40;54.00;;;;;;6129965;28;82843;-68
2021/07/03 00:53:54;;;;;;;8.95;3.78;;;25.40;54.10;;;;;;6133031;28;82526;-68
2021/07/03 00:57:02;;;;;;;5.78;3.95;;;25.40;54.10;;;;;;6107971;28;83108;-68
2021/07/03 01:00:03;;;;;;;4.25;3.30;;;25.40;53.90;;;;;;6103262;28;81782;-68
2021/07/03 01:03:04;;;;;;;5.28;3.50;;;25.40;54.00;;;;;;6118141;28;82369;-68
2021/07/03 01:06:04;;;;;;;4.53;3.20;;;25.40;54.00;;;;;;6134578;28;83036;-68
2021/07/03 01:09:05;;;;;;;4.32;3.78;;;25.40;54.00;;;;;;6129689;28;80775;-69
2021/07/03 01:12:07;;;;;;;3.45;3.00;;;25.40;53.90;;;;;;6132180;28;82656;-69
2021/07/03 01:15:07;;;;;;;5.43;3.75;;;25.40;54.00;;;;;;6130431;28;81610;-68
2021/07/03 01:18:10;;;;;;;4.45;3.13;;;25.30;54.10;;;;;;6136123;28;83880;-68
2021/07/03 01:21:13;;;;;;;7.95;3.60;;;25.40;54.20;;;;;;6121542;28;81547;-69
2021/07/03 01:24:13;;;;;;;4.50;3.45;;;25.30;54.10;;;;;;6118227;28;82837;-70
2021/07/03 01:27:14;;;;;;;4.60;3.60;;;25.30;54.10;;;;;;6132242;28;83067;-70
2021/07/03 01:30:17;;;;;;;5.82;4.13;;;25.30;54.30;;;;;;6127500;28;83551;-71
2021/07/03 01:33:17;;;;;;;5.28;3.80;;;25.30;54.10;;;;;;6131404;28;83734;-71
2021/07/03 01:36:18;;;;;;;4.30;3.47;;;25.40;54.30;;;;;;6127745;28;83467;-73
2021/07/03 01:39:19;;;;;;;8.90;4.30;;;25.40;54.20;;;;;;6132831;28;83277;-69
2021/07/03 01:42:20;;;;;;;5.20;3.72;;;25.30;54.20;;;;;;6123651;28;81807;-69
2021/07/03 01:45:21;;;;;;;4.60;3.85;;;25.30;54.20;;;;;;6130893;28;80776;-72
2021/07/03 01:48:22;;;;;;;5.32;4.03;;;25.30;54.30;;;;;;6125653;28;81462;-67
2021/07/03 01:51:23;;;;;;;5.20;4.05;;;25.30;54.60;;;;;;6133062;28;82473;-67
2021/07/03 01:54:25;;;;;;;5.15;4.28;;;25.30;54.50;;;;;;6133028;28;82230;-68
2021/07/03 01:57:31;;;;;;;7.05;4.30;;;25.30;54.40;;;;;;6120767;28;81687;-69
2021/07/03 02:01:04;;;;;;;6.03;4.22;;;25.30;54.40;;;;;;6112197;28;80234;-68
2021/07/03 02:04:04;;;;;;;5.72;4.53;;;25.30;54.50;;;;;;6130953;28;82858;-67
2021/07/03 02:07:18;;;;;;;5.40;3.90;;;25.30;54.50;;;;;;6138408;28;82003;-68
2021/07/03 02:10:18;;;;;;;7.10;4.80;;;25.30;54.60;;;;;;6133670;28;81365;-69
2021/07/03 02:13:20;;;;;;;6.82;4.75;;;25.20;54.60;;;;;;6129984;28;83356;-68
2021/07/03 02:16:20;;;;;;;5.72;4.45;;;25.30;54.60;;;;;;6125548;28;80798;-68
2021/07/03 02:19:21;;;;;;;5.72;4.15;;;25.30;54.70;;;;;;6137093;28;81547;-68
2021/07/03 02:22:24;;;;;;;5.85;4.55;;;25.30;54.80;;;;;;6131036;28;81332;-67
2021/07/03 02:25:26;;;;;;;6.32;4.55;;;25.20;54.70;;;;;;6129658;28;83499;-68
2021/07/03 02:28:34;;;;;;;6.32;5.25;;;25.30;54.80;;;;;;6129467;28;83345;-67
2021/07/03 02:31:51;;;;;;;8.93;4.85;;;25.20;54.90;;;;;;6122714;28;83681;-67
2021/07/03 02:34:53;;;;;;;7.30;5.10;;;25.20;54.90;;;;;;6114092;28;81571;-68
2021/07/03 02:37:54;;;;;;;6.32;5.25;;;25.20;54.90;;;;;;6131311;28;83533;-67
2021/07/03 02:40:56;;;;;;;6.25;4.80;;;25.20;54.80;;;;;;6131707;28;82660;-68
2021/07/03 02:43:59;;;;;;;6.82;4.63;;;25.20;54.90;;;;;;6124279;28;81477;-68
2021/07/03 02:47:01;;;;;;;6.32;4.82;;;25.20;54.90;;;;;;6117537;28;82563;-68
2021/07/03 02:50:02;;;;;;;6.93;5.30;;;25.20;55.10;;;;;;6129458;28;82931;-68
2021/07/03 02:53:03;;;;;;;8.88;5.20;;;25.20;55.00;;;;;;6135121;28;80636;-67
2021/07/03 02:56:03;;;;;;;6.97;4.85;;;25.20;55.00;;;;;;6131524;28;80854;-67
2021/07/03 02:59:08;;;;;;;8.75;5.35;;;25.20;55.00;;;;;;6134308;28;83285;-68
2021/07/03 03:02:08;;;;;;;7.95;5.40;;;25.20;55.10;;;;;;6136621;28;82999;-68
2021/07/03 03:05:11;;;;;;;7.00;5.38;;;25.20;55.20;;;;;;6134862;28;83276;-69
2021/07/03 03:08:11;;;;;;;10.65;6.10;;;25.20;55.00;;;;;;6125385;28;81329;-70
2021/07/03 03:11:12;;;;;;;8.70;5.10;;;25.20;55.10;;;;;;6133961;28;80593;-68
2021/07/03 03:14:13;;;;;;;7.00;4.78;;;25.20;55.30;;;;;;6131817;28;82695;-69
2021/07/03 03:17:15;;;;;;;10.85;6.35;;;25.30;55.20;;;;;;6123955;28;83402;-69
2021/07/03 03:20:16;;;;;;;6.90;5.72;;;25.20;55.10;;;;;;6125585;28;83397;-69
2021/07/03 03:23:17;;;;;;;9.10;5.47;;;25.20;55.10;;;;;;6127457;28;81866;-69
2021/07/03 03:26:18;;;;;;;9.27;5.60;;;25.20;55.20;;;;;;6131595;28;80194;-69
2021/07/03 03:29:18;;;;;;;9.98;5.63;;;25.30;55.20;;;;;;6132758;28;81002;-69
2021/07/03 03:32:19;;;;;;;9.68;6.50;;;25.30;55.20;;;;;;6134665;28;81800;-70
2021/07/03 03:35:20;;;;;;;8.13;5.40;;;25.30;55.20;;;;;;6120469;28;82668;-69
2021/07/03 03:38:23;;;;;;;9.15;6.15;;;25.30;55.30;;;;;;6131570;28;81740;-69
2021/07/03 03:41:24;;;;;;;8.80;6.30;;;25.30;55.30;;;;;;6127531;28;80425;-72
2021/07/03 03:44:26;;;;;;;10.85;6.93;;;25.30;55.30;;;;;;6121747;28;83364;-77
2021/07/03 03:47:26;;;;;;;8.82;6.30;;;25.30;55.30;;;;;;6134684;28;80813;-73
2021/07/03 03:50:27;;;;;;;9.95;6.20;;;25.30;55.30;;;;;;6127205;28;80660;-72
2021/07/03 03:53:27;;;;;;;11.13;6.75;;;25.30;55.40;;;;;;6131349;28;80522;-72
2021/07/03 03:56:29;;;;;;;10.27;6.53;;;25.30;55.40;;;;;;6126577;28;82848;-72
2021/07/03 03:59:30;;;;;;;9.80;6.28;;;25.30;55.40;;;;;;6132759;28;81815;-70
2021/07/03 04:02:31;;;;;;;8.98;6.68;;;25.40;55.70;;;;;;6125309;28;82032;-68
2021/07/03 04:05:31;;;;;;;7.75;6.78;;;25.40;55.30;;;;;;6134564;28;83501;-68
2021/07/03 04:08:33;;;;;;;8.27;6.72;;;25.40;55.20;;;;;;6133738;28;80258;-69
2021/07/03 04:11:34;;;;;;;12.30;8.18;;;25.40;54.90;;;;;;6137138;28;81341;-68
2021/07/03 04:14:35;;;;;;;13.73;8.52;;;25.40;55.10;;;;;;6134797;28;80576;-68
2021/07/03 04:17:35;;;;;;;11.63;8.60;;;25.30;55.10;;;;;;6128998;28;83431;-68
2021/07/03 04:20:36;;;;;;;12.57;8.75;;;25.30;55.20;;;;;;6131956;28;80648;-67
2021/07/03 04:23:36;;;;;;;12.52;9.25;;;25.40;55.30;;;;;;6137008;28;84511;-68
2021/07/03 04:26:37;;;;;;;15.57;10.10;;;25.30;55.30;;;;;;6127096;28;82458;-69
2021/07/03 04:29:37;;;;;;;15.60;8.85;;;25.30;55.30;;;;;;6128189;28;83093;-71
2021/07/03 04:32:38;;;;;;;15.77;9.90;;;25.30;55.40;;;;;;6134000;28;83019;-70
2021/07/03 04:35:38;;;;;;;25.15;10.45;;;25.30;55.60;;;;;;6131194;28;81023;-67
2021/07/03 04:38:39;;;;;;;13.98;10.60;;;25.30;55.60;;;;;;6132210;28;82885;-70
2021/07/03 04:41:42;;;;;;;14.25;10.02;;;25.30;55.70;;;;;;6121906;28;85791;-71
2021/07/03 04:44:43;;;;;;;14.30;9.60;;;25.30;55.60;;;;;;6127906;28;83147;-65
2021/07/03 04:47:43;;;;;;;18.85;11.20;;;25.30;55.40;;;;;;6125555;28;84092;-66
2021/07/03 04:50:44;;;;;;;13.60;9.68;;;25.30;55.50;;;;;;6132987;28;82689;-68
2021/07/03 04:53:44;;;;;;;15.70;11.07;;;25.30;55.60;;;;;;6134712;28;82960;-69
2021/07/03 04:56:45;;;;;;;14.57;9.98;;;25.40;55.80;;;;;;6130707;28;83004;-68
2021/07/03 04:59:45;;;;;;;13.10;9.23;;;25.40;55.80;;;;;;6129910;28;82783;-68
2021/07/03 05:02:47;;;;;;;14.70;10.93;;;25.40;55.80;;;;;;6129701;28;85851;-68
2021/07/03 05:05:48;;;;;;;16.67;11.57;;;25.40;56.10;;;;;;6130569;28;83620;-68
2021/07/03 05:08:49;;;;;;;17.15;10.98;;;25.40;56.10;;;;;;6117103;28;83436;-68
2021/07/03 05:11:49;;;;;;;13.65;10.38;;;25.40;56.50;;;;;;6121779;28;83377;-68
2021/07/03 05:14:50;;;;;;;21.67;11.15;;;25.50;56.20;;;;;;6119469;28;83107;-66
2021/07/03 05:17:50;;;;;;;20.80;11.65;;;25.40;56.30;;;;;;6125908;28;85535;-67
2021/07/03 05:20:51;;;;;;;13.48;10.88;;;25.50;56.50;;;;;;6128832;28;84047;-67
2021/07/03 05:23:51;;;;;;;15.85;11.30;;;25.40;56.40;;;;;;6129155;28;83797;-67
2021/07/03 05:26:52;;;;;;;17.33;11.32;;;25.50;56.40;;;;;;6125893;28;83458;-67
2021/07/03 05:29:52;;;;;;;13.82;10.05;;;25.50;56.30;;;;;;6126449;28;83641;-67
2021/07/03 05:32:53;;;;;;;19.02;11.35;;;25.50;56.50;;;;;;6120992;28;83335;-67
2021/07/03 05:35:53;;;;;;;13.50;10.55;;;25.50;56.00;;;;;;6126816;28;83332;-67
2021/07/03 05:38:54;;;;;;;19.90;11.75;;;25.50;56.00;;;;;;6115128;28;83364;-67
2021/07/03 05:41:55;;;;;;;15.45;11.27;;;25.50;56.20;;;;;;6115710;28;84167;-67
2021/07/03 05:44:55;;;;;;;16.25;10.48;;;25.50;56.00;;;;;;6124786;28;83507;-66
2021/07/03 05:47:56;;;;;;;14.45;10.98;;;25.60;55.80;;;;;;6122247;28;82943;-66
2021/07/03 05:50:56;;;;;;;17.55;11.45;;;25.60;56.00;;;;;;6126691;28;85880;-67
2021/07/03 05:53:57;;;;;;;12.98;9.35;;;25.60;55.90;;;;;;6128336;28;83432;-67
2021/07/03 05:56:57;;;;;;;17.25;10.95;;;25.60;55.40;;;;;;6131897;28;83087;-67
2021/07/03 05:59:58;;;;;;;12.88;10.23;;;25.60;55.80;;;;;;6119862;28;83202;-67
2021/07/03 06:02:58;;;;;;;13.75;9.63;;;25.70;56.20;;;;;;6123604;28;83451;-66
2021/07/03 06:05:59;;;;;;;12.85;10.00;;;25.70;56.00;;;;;;6120275;28;83195;-68
2021/07/03 06:08:59;;;;;;;14.23;9.65;;;25.70;55.90;;;;;;6125134;28;83764;-67
2021/07/03 06:12:00;;;;;;;17.35;11.15;;;25.70;55.60;;;;;;6132117;28;83440;-67
2021/07/03 06:15:00;;;;;;;14.13;10.75;;;25.70;55.70;;;;;;6129569;28;84043;-68
2021/07/03 06:18:01;;;;;;;11.20;9.27;;;25.70;55.60;;;;;;6116017;28;86254;-67
2021/07/03 06:21:01;;;;;;;12.95;8.82;;;25.70;55.40;;;;;;6125157;28;83500;-67
2021/07/03 06:24:02;;;;;;;12.38;9.73;;;25.70;55.10;;;;;;6126277;28;81109;-67
2021/07/03 06:27:02;;;;;;;16.85;9.50;;;25.70;54.80;;;;;;6133844;28;81324;-68
2021/07/03 06:30:03;;;;;;;11.63;8.82;;;25.70;55.00;;;;;;6133555;28;80518;-67
2021/07/03 06:33:04;;;;;;;17.52;8.95;;;25.70;55.30;;;;;;6136274;28;80923;-66
2021/07/03 06:36:04;;;;;;;13.23;9.38;;;25.70;55.50;;;;;;6137564;28;81492;-67
2021/07/03 06:39:05;;;;;;;18.38;9.18;;;25.70;55.50;;;;;;6139878;28;80415;-65
2021/07/03 06:42:05;;;;;;;17.77;10.32;;;25.70;56.20;;;;;;6136329;28;80642;-66
2021/07/03 06:45:06;;;;;;;14.70;9.45;;;25.70;56.00;;;;;;6125818;28;83952;-65
2021/07/03 06:48:06;;;;;;;16.02;8.70;;;25.70;55.80;;;;;;6128743;28;84531;-66
2021/07/03 06:51:07;;;;;;;13.93;9.02;;;25.70;55.90;;;;;;6136962;28;81465;-65
2021/07/03 06:54:08;;;;;;;15.90;9.27;;;25.70;55.50;;;;;;6137755;28;80866;-65
2021/07/03 06:57:09;;;;;;;13.68;8.65;;;25.70;55.20;;;;;;6134743;28;81324;-67
2021/07/03 07:00:10;;;;;;;15.00;8.40;;;25.70;55.10;;;;;;6136884;28;80802;-66
2021/07/03 07:03:10;;;;;;;15.27;9.88;;;25.70;55.60;;;;;;6122972;28;83017;-68
2021/07/03 07:06:11;;;;;;;21.25;9.05;;;25.70;55.50;;;;;;6128104;28;81543;-67
2021/07/03 07:09:11;;;;;;;18.33;7.53;;;25.70;55.70;;;;;;6122927;28;81028;-69
2021/07/03 07:12:12;;;;;;;16.15;8.48;;;25.70;55.40;;;;;;6137636;28;81074;-66
2021/07/03 07:15:12;;;;;;;16.08;7.78;;;25.80;55.80;;;;;;6126194;28;80298;-67
2021/07/03 07:18:13;;;;;;;20.65;7.47;;;25.70;55.70;;;;;;6129282;28;80814;-67
2021/07/03 07:21:13;;;;;;;14.82;7.72;;;25.70;55.90;;;;;;6102045;28;81401;-67
2021/07/03 07:24:14;;;;;;;24.80;7.57;;;25.70;55.80;;;;;;6124789;28;80275;-67
2021/07/03 07:27:14;;;;;;;33.67;7.55;;;25.70;56.10;;;;;;6127667;28;80939;-66
2021/07/03 07:30:15;;;;;;;18.85;7.40;;;25.70;56.90;;;;;;6123173;28;80768;-66
2021/07/03 07:33:15;;;;;;;24.92;7.57;;;25.80;56.90;;;;;;6119619;28;81850;-67
2021/07/03 07:36:16;;;;;;;13.45;6.57;;;25.80;56.40;;;;;;6129671;28;81465;-68
2021/07/03 07:39:16;;;;;;;19.02;6.60;;;25.80;56.20;;;;;;6134670;28;80453;-67
2021/07/03 07:42:17;;;;;;;19.23;6.43;;;25.80;55.80;;;;;;6135802;28;80777;-67
2021/07/03 07:45:17;;;;;;;9.18;6.95;;;25.90;55.90;;;;;;6130615;28;80619;-67
2021/07/03 07:48:18;;;;;;;11.18;6.82;;;25.90;55.50;;;;;;6133597;28;81220;-67
2021/07/03 07:51:19;;;;;;;10.48;6.85;;;25.90;55.40;;;;;;6132356;28;81413;-67
2021/07/03 07:54:19;;;;;;;11.57;7.00;;;25.90;55.20;;;;;;6129602;28;80487;-67
2021/07/03 07:57:21;;;;;;;12.60;6.80;;;25.90;55.20;;;;;;6133032;28;80726;-68
2021/07/03 08:00:22;;;;;;;12.10;6.70;;;25.90;55.30;;;;;;6132109;28;81190;-67
2021/07/03 08:03:22;;;;;;;13.93;7.07;;;25.90;55.30;;;;;;6127131;28;80482;-66
2021/07/03 08:06:23;;;;;;;12.80;6.82;;;25.90;55.00;;;;;;6110601;28;81401;-66
2021/07/03 08:09:23;;;;;;;17.88;8.27;;;25.90;55.10;;;;;;6133466;28;80955;-66
2021/07/03 08:12:24;;;;;;;12.35;7.50;;;25.90;55.10;;;;;;6130109;28;80797;-66
2021/07/03 08:15:24;;;;;;;10.32;6.82;;;25.90;55.00;;;;;;6129796;28;80423;-66
2021/07/03 08:18:25;;;;;;;10.50;7.80;;;25.90;54.50;;;;;;6137514;28;80930;-66
2021/07/03 08:21:26;;;;;;;11.38;7.53;;;25.90;54.40;;;;;;6132024;28;81218;-66
2021/07/03 08:24:26;;;;;;;12.57;7.35;;;25.90;54.30;;;;;;6158043;28;80792;-66
2021/07/03 08:27:27;;;;;;;15.32;7.03;;;25.90;54.20;;;;;;6130813;28;81327;-66
2021/07/03 08:30:27;;;;;;;10.32;7.40;;;25.90;54.20;;;;;;6134674;28;81820;-66
2021/07/03 08:33:28;;;;;;;10.30;7.03;;;25.90;54.30;;;;;;6132510;28;80666;-66
2021/07/03 08:36:29;;;;;;;11.32;6.70;;;25.90;54.20;;;;;;6131455;28;80635;-66
2021/07/03 08:39:29;;;;;;;10.38;6.60;;;26.00;54.30;;;;;;6132312;28;80986;-66
2021/07/03 08:42:30;;;;;;;9.65;6.75;;;26.00;54.40;;;;;;6132642;28;80563;-67
2021/07/03 08:45:30;;;;;;;11.15;6.80;;;26.00;54.20;;;;;;6134554;28;80217;-66
2021/07/03 08:48:31;;;;;;;8.48;6.70;;;25.90;54.30;;;;;;6135811;28;80656;-67
2021/07/03 08:51:31;;;;;;;13.40;7.60;;;26.00;54.20;;;;;;6128230;28;80524;-67
2021/07/03 08:54:32;;;;;;;10.43;7.38;;;26.00;54.20;;;;;;6134065;28;82258;-67
2021/07/03 08:57:32;;;;;;;10.73;6.95;;;26.00;54.10;;;;;;6130523;28;83558;-67
2021/07/03 09:00:33;;;;;;;10.38;6.75;;;26.00;54.10;;;;;;6129859;28;80999;-66
2021/07/03 09:03:33;;;;;;;12.48;6.70;;;26.00;53.90;;;;;;6130533;28;82284;-67
2021/07/03 09:06:34;;;;;;;11.15;6.90;;;26.00;53.60;;;;;;6136522;28;80345;-67
2021/07/03 09:09:34;;;;;;;11.85;7.07;;;26.00;53.70;;;;;;6130809;28;80083;-66
2021/07/03 09:12:35;;;;;;;8.85;6.80;;;26.00;53.80;;;;;;6133116;28;81047;-66
2021/07/03 09:15:35;;;;;;;10.23;6.15;;;26.00;53.60;;;;;;6125515;28;81679;-67
2021/07/03 09:18:36;;;;;;;25.15;12.27;;;26.00;53.80;;;;;;6129846;28;80676;-67
2021/07/03 09:21:37;;;;;;;156.38;61.35;;;26.00;53.70;;;;;;6118164;28;83209;-67
2021/07/03 09:24:37;;;;;;;339.33;126.28;;;26.00;53.80;;;;;;6124320;28;83286;-65
2021/07/03 09:27:38;;;;;;;365.15;134.65;;;26.00;54.00;;;;;;6117193;28;85717;-67
2021/07/03 09:30:38;;;;;;;287.63;109.22;;;26.00;53.80;;;;;;6125790;28;88675;-67
2021/07/03 09:33:39;;;;;;;246.55;95.93;;;26.00;53.60;;;;;;6124760;28;85418;-67
2021/07/03 09:36:39;;;;;;;222.05;83.15;;;26.00;53.60;;;;;;6128388;28;85229;-67
2021/07/03 09:39:40;;;;;;;183.25;69.85;;;26.00;53.50;;;;;;6131716;28;83759;-67
2021/07/03 09:42:40;;;;;;;135.98;52.67;;;25.90;53.40;;;;;;6124670;28;83399;-67
2021/07/03 09:45:41;;;;;;;119.25;43.45;;;25.90;53.40;;;;;;6125029;28;83246;-67
2021/07/03 09:48:41;;;;;;;93.38;33.53;;;25.90;53.80;;;;;;6129197;28;83785;-68
2021/07/03 09:51:42;;;;;;;67.43;30.27;;;25.90;53.70;;;;;;6120702;28;83524;-67
2021/07/03 09:54:42;;;;;;;71.93;29.30;;;25.90;53.80;;;;;;6122528;28;83253;-68
2021/07/03 09:57:43;;;;;;;65.75;26.50;;;25.90;54.50;;;;;;6120174;28;83499;-68
2021/07/03 10:00:43;;;;;;;50.22;22.30;;;25.90;54.20;;;;;;6120753;28;83236;-68
2021/07/03 10:03:44;;;;;;;52.50;20.52;;;25.90;54.20;;;;;;6132707;28;83909;-68
2021/07/03 10:06:44;;;;;;;40.70;18.40;;;25.90;54.50;;;;;;6118767;28;83216;-69
2021/07/03 10:09:45;;;;;;;46.25;19.10;;;25.90;54.90;;;;;;6127870;28;83117;-68
2021/07/03 10:12:45;;;;;;;41.67;18.48;;;25.90;54.30;;;;;;6131596;28;83946;-68
2021/07/03 10:15:46;;;;;;;52.80;21.35;;;25.90;56.30;;;;;;6131899;28;84839;-68
2021/07/03 10:18:46;;;;;;;68.78;25.30;;;26.00;59.10;;;;;;6134656;28;83594;-71
2021/07/03 10:21:47;;;;;;;76.85;27.80;;;26.00;60.20;;;;;;6127713;28;84540;-68
2021/07/03 10:24:52;;;;;;;77.70;26.90;;;26.10;61.40;;;;;;6129307;28;83656;-67
2021/07/03 10:27:52;;;;;;;77.03;31.42;;;26.10;63.50;;;;;;6125647;28;84451;-74
2021/07/03 10:30:53;;;;;;;83.35;30.15;;;26.10;64.40;;;;;;6134387;28;84682;-67
2021/07/03 10:33:56;;;;;;;83.57;29.08;;;26.10;65.00;;;;;;6130431;28;83398;-68
2021/07/03 10:36:56;;;;;;;76.68;27.17;;;26.10;65.10;;;;;;6130442;28;83430;-68
2021/07/03 10:39:57;;;;;;;70.75;24.80;;;26.10;65.20;;;;;;6128853;28;83602;-68
2021/07/03 10:42:57;;;;;;;57.22;22.88;;;26.10;64.90;;;;;;6128860;28;84073;-67
2021/07/03 10:45:58;;;;;;;68.18;21.95;;;26.10;63.20;;;;;;6128272;28;83910;-66
2021/07/03 10:48:58;;;;;;;66.90;22.67;;;26.10;63.10;;;;;;6132459;28;85396;-66
2021/07/03 10:51:59;;;;;;;54.85;19.48;;;26.00;62.90;;;;;;6124520;28;86473;-68
2021/07/03 10:54:59;;;;;;;55.05;20.67;;;26.00;62.20;;;;;;6130127;28;83073;-67
2021/07/03 10:58:00;;;;;;;40.92;17.52;;;26.00;61.70;;;;;;6114485;28;84371;-66
2021/07/03 11:01:01;;;;;;;35.75;16.23;;;26.00;61.50;;;;;;6122559;28;83934;-67
2021/07/03 11:04:01;;;;;;;41.33;16.35;;;26.00;61.10;;;;;;6133358;28;84348;-67
2021/07/03 11:07:02;;;;;;;36.35;13.80;;;26.00;60.70;;;;;;6127530;28;83403;-67
2021/07/03 11:10:02;;;;;;;43.70;14.20;;;26.10;60.40;;;;;;6130859;28;83049;-67
2021/07/03 11:13:03;;;;;;;32.40;14.57;;;26.10;59.90;;;;;;6133244;28;83562;-67
2021/07/03 11:16:03;;;;;;;30.90;13.45;;;26.10;59.90;;;;;;6129863;28;83364;-68
2021/07/03 11:19:04;;;;;;;36.97;13.85;;;26.10;60.10;;;;;;6133579;28;84195;-68
2021/07/03 11:22:05;;;;;;;30.25;12.40;;;26.00;60.00;;;;;;6124590;28;83109;-69
2021/07/03 11:25:06;;;;;;;29.80;11.93;;;26.10;60.00;;;;;;6130676;28;83565;-68
2021/07/03 11:28:06;;;;;;;29.77;12.73;;;26.10;60.10;;;;;;6129836;28;83559;-67
2021/07/03 11:31:07;;;;;;;34.30;13.38;;;26.00;60.40;;;;;;6134906;28;83253;-67
2021/07/03 11:34:07;;;;;;;33.85;12.98;;;26.00;60.60;;;;;;6131068;28;83379;-68
2021/07/03 11:37:08;;;;;;;27.27;12.35;;;26.00;60.60;;;;;;6130263;28;83391;-68
2021/07/03 11:40:08;;;;;;;24.88;10.60;;;26.00;60.90;;;;;;6130366;28;83504;-67
2021/07/03 11:43:09;;;;;;;22.92;10.60;;;25.90;60.60;;;;;;6132536;28;86126;-67
2021/07/03 11:46:09;;;;;;;23.83;10.30;;;26.00;60.30;;;;;;6123838;28;83983;-65
2021/07/03 11:49:10;;;;;;;26.65;9.73;;;26.00;61.20;;;;;;6121525;28;83265;-68
2021/07/03 11:52:10;;;;;;;18.88;9.90;;;26.00;60.00;;;;;;6135227;28;82979;-73
2021/07/03 11:55:11;;;;;;;22.35;10.00;;;26.00;60.00;;;;;;6128348;28;81586;-71
2021/07/03 11:58:12;;;;;;;24.40;10.90;;;26.00;59.90;;;;;;6131711;28;82874;-71
2021/07/03 12:01:12;;;;;;;19.58;10.88;;;26.00;58.60;;;;;;6127096;28;84366;-71
2021/07/03 12:04:13;;;;;;;17.95;9.63;;;26.10;58.60;;;;;;6131397;28;82896;-71
2021/07/03 12:07:13;;;;;;;19.98;9.52;;;26.00;60.00;;;;;;6131983;28;83630;-69
2021/07/03 12:10:14;;;;;;;21.80;11.48;;;26.00;58.90;;;;;;6134355;28;80358;-72
2021/07/03 12:13:14;;;;;;;14.15;8.95;;;26.00;58.80;;;;;;6131205;28;84018;-68
2021/07/03 12:16:15;;;;;;;13.27;8.75;;;26.10;58.30;;;;;;6123965;28;82932;-68
2021/07/03 12:19:16;;;;;;;12.15;7.47;;;26.00;56.90;;;;;;6125937;28;80465;-69
2021/07/03 12:22:17;;;;;;;17.73;8.10;;;26.00;55.20;;;;;;6133233;28;82382;-69
2021/07/03 12:25:17;;;;;;;13.10;9.13;;;25.90;55.10;;;;;;6128817;28;81697;-68
2021/07/03 12:28:18;;;;;;;12.13;7.90;;;25.90;55.40;;;;;;6120164;28;82515;-67
2021/07/03 12:31:18;;;;;;;12.50;7.60;;;25.90;55.40;;;;;;6117813;28;81750;-68
2021/07/03 12:34:25;;;;;;;12.20;6.85;;;25.90;55.30;;;;;;6121785;28;80770;-69
2021/07/03 12:37:26;;;;;;;12.52;7.18;;;25.90;55.00;;;;;;6124617;28;81347;-69
2021/07/03 12:40:26;;;;;;;15.68;9.98;;;25.90;54.90;;;;;;6119953;28;81068;-69
2021/07/03 12:43:27;;;;;;;11.73;8.05;;;25.90;55.00;;;;;;6117778;28;83702;-71
2021/07/03 12:46:51;;;;;;;11.90;7.88;;;25.90;54.60;;;;;;6239933;27;76472;-72
2021/07/03 12:49:53;;;;;;;10.68;7.25;;;25.80;54.50;;;;;;6211824;28;81075;-69
2021/07/03 12:52:54;;;;;;;12.90;6.85;;;25.80;54.50;;;;;;6231321;27;80818;-69
2021/07/03 12:55:54;;;;;;;15.93;10.70;;;25.80;54.60;;;;;;6235244;27;81853;-69
2021/07/03 12:58:55;;;;;;;12.77;9.30;;;25.80;54.80;;;;;;6230189;28;83691;-70
2021/07/03 13:01:55;;;;;;;15.77;9.52;;;25.80;54.80;;;;;;6234906;27;84028;-70
2021/07/03 13:04:55;;;;;;;11.48;8.07;;;25.70;54.70;;;;;;6235380;27;81221;-70
2021/07/03 13:07:56;;;;;;;11.57;8.55;;;25.70;54.80;;;;;;6234799;27;80414;-69
2021/07/03 13:10:57;;;;;;;12.60;7.40;;;25.70;54.60;;;;;;6231796;27;81225;-70
2021/07/03 13:14:01;;;;;;;15.68;9.07;;;25.70;55.20;;;;;;6233216;27;80500;-74
2021/07/03 13:17:01;;;;;;;10.32;7.68;;;25.80;54.90;;;;;;6233791;28;81414;-75
2021/07/03 13:20:02;;;;;;;13.82;7.55;;;25.80;55.10;;;;;;6233216;28;81114;-72
2021/07/03 13:23:02;;;;;;;9.75;7.93;;;25.80;55.10;;;;;;6234152;28;82187;-69
2021/07/03 13:26:03;;;;;;;11.80;7.45;;;25.80;55.10;;;;;;6232137;28;81394;-68
2021/07/03 13:29:03;;;;;;;12.45;7.50;;;25.80;55.20;;;;;;6233642;28;80982;-71
2021/07/03 13:32:07;;;;;;;13.50;8.15;;;25.90;55.30;;;;;;6233089;27;80811;-70
2021/07/03 13:35:07;;;;;;;11.50;7.25;;;25.90;55.30;;;;;;6233165;27;82262;-71
2021/07/03 13:38:08;;;;;;;8.65;6.85;;;25.90;55.20;;;;;;6233155;27;80863;-76
2021/07/03 13:41:10;;;;;;;8.35;7.00;;;25.90;54.80;;;;;;6231916;27;81274;-74
2021/07/03 13:44:10;;;;;;;16.63;6.70;;;25.90;55.10;;;;;;6233217;27;81063;-71
2021/07/03 13:47:11;;;;;;;10.07;7.35;;;25.80;54.80;;;;;;6230231;28;82755;-74
2021/07/03 13:50:11;;;;;;;12.13;7.38;;;25.80;55.30;;;;;;6232176;27;80832;-73
2021/07/03 13:53:12;;;;;;;12.07;6.53;;;25.80;56.40;;;;;;6234735;27;82053;-74
2021/07/03 13:56:12;;;;;;;11.88;7.05;;;25.80;56.70;;;;;;6218788;27;81024;-72
2021/07/03 13:59:13;;;;;;;10.07;6.90;;;25.80;56.90;;;;;;6200938;28;80385;-73
2021/07/03 14:02:13;;;;;;;18.42;8.88;;;25.80;57.30;;;;;;6202532;28;81307;-72
2021/07/03 14:05:14;;;;;;;15.10;8.70;;;25.80;57.60;;;;;;6202117;28;81460;-73
2021/07/03 14:08:14;;;;;;;13.77;8.38;;;25.80;57.90;;;;;;6205509;28;80932;-74
2021/07/03 14:11:15;;;;;;;11.32;8.23;;;25.80;58.00;;;;;;6206775;28;80320;-74
2021/07/03 14:14:17;;;;;;;13.93;9.07;;;25.80;58.10;;;;;;6198964;27;82498;-72
2021/07/03 14:17:17;;;;;;;10.38;7.93;;;25.70;58.20;;;;;;6210167;28;80910;-73
2021/07/03 14:20:18;;;;;;;12.77;7.75;;;25.70;58.60;;;;;;6201919;28;80610;-74
2021/07/03 14:23:18;;;;;;;13.18;8.55;;;25.70;59.00;;;;;;6202214;28;81534;-73
2021/07/03 14:26:19;;;;;;;15.15;8.18;;;25.70;59.20;;;;;;6205028;28;80612;-73
2021/07/03 14:29:19;;;;;;;13.85;8.43;;;25.70;59.60;;;;;;6204695;28;81625;-73
2021/07/03 14:32:20;;;;;;;16.50;8.93;;;25.60;59.80;;;;;;6208796;28;80490;-72
2021/07/03 14:35:21;;;;;;;16.58;9.00;;;25.60;59.90;;;;;;6199900;28;81005;-71
2021/07/03 14:38:21;;;;;;;16.63;8.50;;;25.60;59.30;;;;;;6206176;28;83257;-72
2021/07/03 14:41:22;;;;;;;11.75;7.95;;;25.60;59.30;;;;;;6200858;28;80531;-73
2021/07/03 14:44:22;;;;;;;16.58;7.80;;;25.60;59.30;;;;;;6205481;28;80706;-74
2021/07/03 14:47:23;;;;;;;16.23;10.05;;;25.60;59.10;;;;;;6195145;28;80510;-73
2021/07/03 14:50:23;;;;;;;18.83;12.45;;;25.50;58.80;;;;;;6191098;28;83073;-73
2021/07/03 14:53:24;;;;;;;13.70;9.40;;;25.50;59.00;;;;;;6193462;28;83657;-73
2021/07/03 14:56:24;;;;;;;16.55;9.45;;;25.50;58.80;;;;;;6198211;28;81813;-73
2021/07/03 14:59:25;;;;;;;16.55;8.70;;;25.50;58.70;;;;;;6199484;28;80288;-71
2021/07/03 15:02:25;;;;;;;14.80;7.93;;;25.50;58.50;;;;;;6198125;28;80522;-73
2021/07/03 15:05:26;;;;;;;20.10;8.27;;;25.50;58.10;;;;;;6204553;28;80682;-72
2021/07/03 15:08:26;;;;;;;15.80;8.48;;;25.50;58.30;;;;;;6181749;28;83907;-72
2021/07/03 15:11:27;;;;;;;11.70;7.88;;;25.50;58.20;;;;;;6204266;28;80692;-74
2021/07/03 15:14:27;;;;;;;15.77;8.45;;;25.50;58.20;;;;;;6204977;28;80635;-71
2021/07/03 15:17:28;;;;;;;12.70;7.97;;;25.50;58.00;;;;;;6208144;28;80546;-70
2021/07/03 15:20:28;;;;;;;12.07;7.75;;;25.50;57.70;;;;;;6207016;28;80441;-71
2021/07/03 15:23:29;;;;;;;18.20;8.40;;;25.50;57.60;;;;;;6206725;28;81126;-73
2021/07/03 15:26:29;;;;;;;14.55;9.10;;;25.50;57.40;;;;;;6197567;28;81777;-73
2021/07/03 15:29:30;;;;;;;14.07;7.93;;;25.50;57.10;;;;;;6197036;28;83244;-72